Aérodrome :
LOGIN :

S'inscrire | Disclaimer

   EN    FR    IT 

 










Légende :    VFR   VFR Marginal   IFR   IFR Intensif   IFR Très Intensif
Visi : 
Plafond : 
>= 8 km
>= 3000ft
5 à 8 km
1000 à 3000 ft
1500m à 5 km
500 à 1000 ft
800 à 1500m
200 à 500 ft
< 800m
< 200 ft
Symboles :   Orages  Brouillard  Fortes neiges  Fortes précipitations  Vent > 20 kt
SIGMETs :   Divers  Orages  Givrage  Turbulence  Onde Orograph.  Cendres Volcan.






- Altitude de l'aérodrome : 587 ft
- Code IATA : XCR


LFOK - Chalons Vatry

DERNIER METAR :
  • 041130Z AUTO 35006KT 310V060 CAVOK 22/09 Q1018 NOSIG

METARs EXPIRÉS :
  • 041100Z AUTO 34007KT 270V030 9999 FEW048 21/09 Q1018 NOSIG
  • 041030Z AUTO 33007KT 290V030 CAVOK 21/10 Q1018 NOSIG
  • 041000Z AUTO 35006KT 300V040 CAVOK 20/11 Q1018 NOSIG
  • 040930Z AUTO 36006KT 310V050 9999 FEW028 20/12 Q1018 NOSIG
  • 040900Z AUTO 35008KT 330V040 9999 FEW024 18/12 Q1018 NOSIG

TAF TAF LFOK
Valide du 04 à 06h jusqu'au 05 à 06h UTC


040500Z 0406/0506 34008KT CAVOK



MET'MAP, la Météo Aéronautique d'un coup d'oeil ! - Copyright ORBIFLY Décembre 2007 - Disclaimer

ORBIFLY MET'MAP TEAM :

Programmation & Développement : Alexandra Zaïnal
Sur une idée originale de : Baudouin d'Aumeries
Assistance à la programmation : Marc-Olivier Méhu
Soutien technique & logistique : Manuel Goepfert

Contact : metmap@orbifly.com




SOURCES & CREDITS :

   NOAA